createdAt,value
2023-03-27T00:02:50.000Z,3.90
2023-03-27T00:05:37.562Z,4.00
2023-03-27T00:08:24.750Z,4.00
2023-03-27T00:11:12.125Z,4.00
2023-03-27T00:13:59.210Z,3.70
2023-03-27T00:16:46.285Z,3.80
2023-03-27T00:19:34.467Z,3.80
2023-03-27T00:22:21.314Z,3.60
2023-03-27T00:25:08.759Z,3.80
2023-03-27T00:27:56.430Z,3.80
2023-03-27T00:30:43.685Z,3.80
2023-03-27T00:33:30.171Z,3.90
2023-03-27T00:36:17.881Z,3.80
2023-03-27T00:39:05.128Z,3.80
2023-03-27T00:41:51.986Z,3.70
2023-03-27T00:44:39.771Z,3.70
2023-03-27T00:47:33.046Z,3.70
2023-03-27T00:50:23.576Z,3.70
2023-03-27T00:53:13.598Z,3.70
2023-03-27T00:56:02.523Z,3.70
2023-03-27T00:58:52.664Z,3.60
2023-03-27T01:01:40.770Z,3.60
2023-03-27T01:04:27.430Z,3.60
2023-03-27T01:07:15.403Z,3.60
2023-03-27T01:10:06.410Z,3.40
2023-03-27T01:13:00.975Z,3.50
2023-03-27T01:15:53.970Z,3.50
2023-03-27T01:18:53.446Z,3.50
2023-03-27T01:22:09.304Z,3.40
2023-03-27T01:25:21.747Z,3.40
2023-03-27T01:28:29.224Z,3.40
2023-03-27T01:31:44.869Z,3.30
2023-03-27T01:35:13.988Z,3.20
2023-03-27T01:38:30.565Z,3.10
2023-03-27T01:41:26.638Z,3.30
2023-03-27T01:44:18.769Z,3.20
2023-03-27T01:47:11.273Z,3.30
2023-03-27T01:50:07.087Z,3.00
2023-03-27T01:52:57.856Z,3.10
2023-03-27T01:55:49.138Z,3.10
2023-03-27T01:58:46.428Z,3.10
2023-03-27T02:01:39.028Z,3.20
2023-03-27T02:04:31.617Z,3.20
2023-03-27T02:07:25.340Z,3.20
2023-03-27T02:10:17.827Z,3.00
2023-03-27T02:13:10.147Z,2.80
2023-03-27T02:16:01.169Z,3.00
2023-03-27T02:18:54.341Z,3.00
2023-03-27T02:21:41.404Z,3.20
2023-03-27T02:24:28.955Z,3.20
2023-03-27T02:27:25.890Z,2.90
2023-03-27T02:30:17.393Z,2.90
2023-03-27T02:33:14.923Z,2.90
2023-03-27T02:36:11.151Z,2.70
2023-03-27T02:39:03.127Z,2.70
2023-03-27T02:41:53.624Z,2.50
2023-03-27T02:44:51.513Z,2.60
2023-03-27T02:47:42.720Z,2.70
2023-03-27T02:50:35.491Z,2.60
2023-03-27T02:53:25.504Z,2.70
2023-03-27T02:56:14.485Z,2.40
2023-03-27T02:59:04.927Z,2.60
2023-03-27T03:01:52.930Z,2.50
2023-03-27T03:04:46.302Z,2.60
2023-03-27T03:07:34.706Z,2.50
2023-03-27T03:10:22.615Z,2.40
2023-03-27T03:13:09.727Z,2.40
2023-03-27T03:15:56.179Z,2.20
2023-03-27T03:18:42.581Z,2.50
2023-03-27T03:21:29.174Z,2.50
2023-03-27T03:24:17.582Z,2.40
2023-03-27T03:27:05.868Z,2.30
2023-03-27T03:29:53.168Z,2.20
2023-03-27T03:32:39.831Z,2.50
2023-03-27T03:35:26.905Z,2.40
2023-03-27T03:38:13.462Z,2.40
2023-03-27T03:41:01.484Z,2.30
2023-03-27T03:43:48.059Z,2.40
2023-03-27T03:46:34.894Z,2.20
2023-03-27T03:49:21.654Z,2.30
2023-03-27T03:52:08.309Z,2.50
2023-03-27T03:54:54.878Z,2.20
2023-03-27T03:57:47.098Z,2.10
2023-03-27T04:00:38.103Z,2.10
2023-03-27T04:03:27.268Z,2.10
2023-03-27T04:06:14.216Z,2.10
2023-03-27T04:09:00.935Z,2.20
2023-03-27T04:11:47.609Z,2.30
2023-03-27T04:14:35.430Z,2.30
2023-03-27T04:17:23.250Z,2.30
2023-03-27T04:20:10.990Z,2.20
2023-03-27T04:23:02.233Z,2.20
2023-03-27T04:25:48.792Z,2.20
2023-03-27T04:28:35.751Z,2.20
2023-03-27T04:31:23.630Z,2.40
2023-03-27T04:34:10.244Z,2.30
2023-03-27T04:36:57.608Z,2.20
2023-03-27T04:39:44.696Z,2.30
2023-03-27T04:42:32.219Z,2.30
2023-03-27T04:45:21.340Z,2.20
2023-03-27T04:48:09.532Z,2.40
2023-03-27T04:50:56.038Z,2.40
2023-03-27T04:53:43.087Z,2.40
2023-03-27T04:56:31.552Z,2.30
2023-03-27T04:59:18.099Z,2.30
2023-03-27T05:02:06.413Z,2.40
2023-03-27T05:04:58.545Z,2.20
2023-03-27T05:07:46.655Z,2.30
2023-03-27T05:10:33.062Z,2.30
2023-03-27T05:13:19.428Z,2.20
2023-03-27T05:16:06.735Z,2.40
2023-03-27T05:18:53.245Z,2.40
2023-03-27T05:21:41.062Z,2.40
2023-03-27T05:24:27.768Z,2.30
2023-03-27T05:27:15.311Z,2.20
2023-03-27T05:30:01.794Z,2.20
2023-03-27T05:32:49.013Z,2.10
2023-03-27T05:35:36.408Z,2.10
2023-03-27T05:38:24.655Z,2.10
2023-03-27T05:41:11.663Z,2.30
2023-03-27T05:43:58.424Z,2.40
2023-03-27T05:46:44.879Z,2.30
2023-03-27T05:49:33.564Z,2.30
2023-03-27T05:52:20.653Z,2.10
2023-03-27T05:55:10.494Z,2.40
2023-03-27T05:57:57.391Z,2.30
2023-03-27T06:00:44.454Z,2.20
2023-03-27T06:03:31.547Z,2.40
2023-03-27T06:06:18.433Z,2.30
2023-03-27T06:09:05.395Z,2.40
2023-03-27T06:11:53.345Z,2.40
2023-03-27T06:14:39.942Z,2.40
2023-03-27T06:17:26.636Z,2.40
2023-03-27T06:20:15.208Z,2.50
2023-03-27T06:23:04.698Z,2.50
2023-03-27T06:25:53.038Z,2.60
2023-03-27T06:28:40.914Z,2.80
2023-03-27T06:31:27.759Z,2.90
2023-03-27T06:34:15.287Z,3.00
2023-03-27T06:37:03.580Z,3.00
2023-03-27T06:39:50.800Z,3.10
2023-03-27T06:42:38.228Z,3.20
2023-03-27T06:45:28.398Z,3.20
2023-03-27T06:48:21.288Z,3.30
2023-03-27T06:51:08.702Z,3.40
2023-03-27T06:53:55.329Z,3.40
2023-03-27T06:56:41.849Z,3.30
2023-03-27T06:59:28.291Z,3.40
2023-03-27T07:02:16.115Z,3.40
2023-03-27T07:05:05.122Z,3.60
2023-03-27T07:07:52.043Z,3.80
2023-03-27T07:10:39.393Z,3.70
2023-03-27T07:13:25.850Z,3.70
2023-03-27T07:16:13.011Z,3.80
2023-03-27T07:19:02.415Z,3.80
2023-03-27T07:21:49.100Z,3.90
2023-03-27T07:24:35.466Z,4.00
2023-03-27T07:27:22.714Z,4.00
2023-03-27T07:30:12.215Z,4.10
2023-03-27T07:32:59.089Z,4.20
2023-03-27T07:35:48.837Z,4.30
2023-03-27T07:38:35.915Z,4.40
2023-03-27T07:41:22.895Z,4.40
2023-03-27T07:44:09.301Z,4.60
2023-03-27T07:46:56.274Z,4.60
2023-03-27T07:49:45.002Z,4.70
2023-03-27T07:52:34.764Z,4.70
2023-03-27T07:55:23.083Z,4.60
2023-03-27T07:58:09.687Z,4.80
2023-03-27T08:01:02.425Z,4.70
2023-03-27T08:03:49.772Z,4.60
2023-03-27T08:06:37.241Z,4.60
2023-03-27T08:09:24.946Z,4.70
2023-03-27T08:12:11.513Z,4.90
2023-03-27T08:14:57.941Z,4.90
2023-03-27T08:17:44.529Z,5.00
2023-03-27T08:20:31.555Z,5.20
2023-03-27T08:23:17.958Z,5.20
2023-03-27T08:26:06.129Z,5.20
2023-03-27T08:28:54.234Z,5.40
2023-03-27T08:31:40.986Z,5.70
2023-03-27T08:34:28.076Z,5.70
2023-03-27T08:37:14.610Z,5.50
2023-03-27T08:40:01.974Z,5.40
2023-03-27T08:42:55.471Z,5.60
2023-03-27T08:45:47.245Z,5.70
2023-03-27T08:48:40.238Z,5.50
2023-03-27T08:51:30.270Z,5.60
2023-03-27T08:54:20.184Z,5.90
2023-03-27T08:57:18.838Z,5.80
2023-03-27T09:00:23.550Z,6.00
2023-03-27T09:03:16.606Z,6.00
2023-03-27T09:06:09.277Z,6.10
2023-03-27T09:09:04.958Z,6.10
2023-03-27T09:11:59.543Z,6.40
2023-03-27T09:14:50.645Z,6.50
2023-03-27T09:17:42.566Z,6.30
2023-03-27T09:20:34.615Z,6.70
2023-03-27T09:23:25.960Z,6.50
2023-03-27T09:26:15.607Z,6.80
2023-03-27T09:29:05.115Z,6.90
2023-03-27T09:31:54.311Z,6.90
2023-03-27T09:34:43.208Z,6.80
2023-03-27T09:37:30.054Z,6.70
2023-03-27T09:40:24.497Z,6.90
2023-03-27T09:43:17.526Z,7.10
2023-03-27T09:46:05.451Z,7.10
2023-03-27T09:48:57.667Z,7.10
2023-03-27T09:51:47.470Z,6.90
2023-03-27T09:54:52.273Z,6.70
2023-03-27T09:57:40.346Z,6.10
2023-03-27T10:00:30.899Z,5.90
2023-03-27T10:03:20.617Z,5.90
2023-03-27T10:06:09.130Z,6.00
2023-03-27T10:09:01.087Z,6.50
2023-03-27T10:11:50.357Z,6.90
2023-03-27T10:14:39.695Z,7.10
2023-03-27T10:17:30.460Z,7.10
2023-03-27T10:20:19.046Z,6.90
2023-03-27T10:23:22.822Z,7.00
2023-03-27T10:26:15.066Z,7.30
2023-03-27T10:29:10.044Z,7.70
2023-03-27T10:31:58.207Z,8.00
2023-03-27T10:34:53.716Z,7.90
2023-03-27T10:37:50.072Z,8.10
2023-03-27T10:40:40.001Z,8.20
2023-03-27T10:43:33.329Z,7.90
2023-03-27T10:46:22.858Z,8.10
2023-03-27T10:49:21.164Z,8.00
2023-03-27T10:52:18.060Z,8.10
2023-03-27T10:55:16.274Z,8.00
2023-03-27T10:58:07.715Z,7.90
2023-03-27T11:01:01.958Z,7.80
2023-03-27T11:03:53.697Z,7.80
2023-03-27T11:06:44.989Z,8.10
2023-03-27T11:09:34.757Z,8.10
2023-03-27T11:12:23.043Z,8.00
2023-03-27T11:15:15.470Z,7.20
2023-03-27T11:18:08.062Z,6.50
2023-03-27T11:20:59.743Z,5.60
2023-03-27T11:23:52.143Z,4.90
2023-03-27T11:26:47.735Z,5.40
2023-03-27T11:29:41.270Z,5.30
2023-03-27T11:32:36.409Z,5.70
2023-03-27T11:35:27.817Z,6.40
2023-03-27T11:38:19.183Z,6.50
2023-03-27T11:41:06.157Z,6.90
2023-03-27T11:43:52.577Z,6.80
2023-03-27T11:47:04.595Z,7.10
2023-03-27T11:50:10.845Z,7.60
2023-03-27T11:53:14.179Z,8.30
2023-03-27T11:56:11.708Z,8.80
2023-03-27T11:59:14.377Z,8.60
2023-03-27T12:02:11.159Z,7.80
2023-03-27T12:05:00.724Z,7.60
2023-03-27T12:07:59.856Z,7.30
2023-03-27T12:10:50.807Z,6.60
2023-03-27T12:14:01.641Z,6.30
2023-03-27T12:17:21.647Z,6.40
2023-03-27T12:20:53.815Z,6.70
2023-03-27T12:24:11.338Z,7.30
2023-03-27T12:27:34.387Z,7.40
2023-03-27T12:30:31.743Z,7.70
2023-03-27T12:33:36.314Z,8.00
2023-03-27T12:36:26.222Z,8.40
2023-03-27T12:39:18.778Z,8.50
2023-03-27T12:42:15.008Z,8.20
2023-03-27T12:45:14.368Z,8.20
2023-03-27T12:48:19.211Z,7.30
2023-03-27T12:51:15.026Z,6.80
2023-03-27T12:54:15.439Z,6.50
2023-03-27T12:57:06.749Z,5.60
2023-03-27T12:59:56.017Z,6.10
2023-03-27T13:03:04.397Z,5.80
2023-03-27T13:06:24.032Z,6.00
2023-03-27T13:09:26.153Z,6.50
2023-03-27T13:12:46.241Z,6.90
2023-03-27T13:15:43.166Z,7.40
2023-03-27T13:18:53.906Z,7.40
2023-03-27T13:21:52.380Z,7.90
2023-03-27T13:24:58.170Z,8.30
2023-03-27T13:28:08.382Z,7.70
2023-03-27T13:30:56.916Z,7.40
2023-03-27T13:34:08.865Z,7.80
2023-03-27T13:37:07.406Z,7.90
2023-03-27T13:40:07.885Z,7.80
2023-03-27T13:43:01.516Z,8.40
2023-03-27T13:45:52.220Z,8.60
2023-03-27T13:49:16.491Z,8.20
2023-03-27T13:52:31.751Z,8.80
2023-03-27T13:55:50.280Z,8.80
2023-03-27T13:58:53.862Z,9.30
2023-03-27T14:01:50.096Z,8.80
2023-03-27T14:05:09.146Z,9.00
2023-03-27T14:08:17.745Z,9.40
2023-03-27T14:11:17.522Z,9.60
2023-03-27T14:14:24.922Z,9.20
2023-03-27T14:17:36.581Z,9.00
2023-03-27T14:20:26.424Z,8.40
2023-03-27T14:23:16.766Z,8.00
2023-03-27T14:26:07.067Z,8.30
2023-03-27T14:28:58.795Z,8.10
2023-03-27T14:31:46.137Z,7.90
2023-03-27T14:34:43.898Z,7.60
2023-03-27T14:37:41.931Z,7.50
2023-03-27T14:40:32.157Z,7.40
2023-03-27T14:43:21.180Z,7.90
2023-03-27T14:46:09.357Z,8.30
2023-03-27T14:48:58.094Z,8.60
2023-03-27T14:51:47.523Z,8.10
2023-03-27T14:54:44.581Z,8.00
2023-03-27T14:57:35.510Z,8.30
2023-03-27T15:00:24.994Z,8.20
2023-03-27T15:03:16.332Z,8.30
2023-03-27T15:06:05.859Z,7.40
2023-03-27T15:08:55.686Z,6.90
2023-03-27T15:11:50.176Z,7.40
2023-03-27T15:14:38.617Z,7.30
2023-03-27T15:17:25.315Z,7.60
2023-03-27T15:20:14.851Z,7.30
2023-03-27T15:23:06.623Z,7.50
2023-03-27T15:25:57.787Z,7.70
2023-03-27T15:28:53.439Z,8.40
2023-03-27T15:31:43.306Z,8.00
2023-03-27T15:34:36.438Z,8.00
2023-03-27T15:37:25.124Z,8.30
2023-03-27T15:40:36.894Z,8.30
2023-03-27T15:43:25.655Z,8.50
2023-03-27T15:46:18.123Z,9.00
2023-03-27T15:49:21.354Z,9.00
2023-03-27T15:52:30.195Z,8.60
2023-03-27T15:55:36.454Z,8.30
2023-03-27T15:58:26.454Z,8.10
2023-03-27T16:01:20.108Z,7.80
2023-03-27T16:04:09.452Z,7.80
2023-03-27T16:07:07.175Z,8.00
2023-03-27T16:09:56.229Z,8.30
2023-03-27T16:12:51.949Z,7.90
2023-03-27T16:15:41.175Z,7.80
2023-03-27T16:18:33.201Z,7.60
2023-03-27T16:21:23.136Z,7.70
2023-03-27T16:24:09.879Z,8.30
2023-03-27T16:26:57.468Z,8.70
2023-03-27T16:29:44.051Z,9.00
2023-03-27T16:32:30.937Z,8.70
2023-03-27T16:35:18.864Z,8.50
2023-03-27T16:38:05.766Z,8.70
2023-03-27T16:40:52.389Z,8.40
2023-03-27T16:43:39.062Z,7.80
2023-03-27T16:46:27.974Z,7.70
2023-03-27T16:49:14.757Z,7.10
2023-03-27T16:52:02.688Z,6.80
2023-03-27T16:54:49.240Z,6.90
2023-03-27T16:57:36.059Z,6.70
2023-03-27T17:00:23.481Z,6.80
2023-03-27T17:03:11.461Z,6.80
2023-03-27T17:06:00.820Z,6.90
2023-03-27T17:08:52.522Z,7.10
2023-03-27T17:11:39.995Z,7.20
2023-03-27T17:14:26.852Z,7.00
2023-03-27T17:17:13.266Z,7.70
2023-03-27T17:20:00.603Z,7.50
2023-03-27T17:22:47.234Z,7.50
2023-03-27T17:25:34.972Z,7.20
2023-03-27T17:28:21.639Z,6.80
2023-03-27T17:31:08.615Z,6.70
2023-03-27T17:33:55.250Z,6.30
2023-03-27T17:36:49.577Z,6.40
2023-03-27T17:39:41.301Z,6.50
2023-03-27T17:42:29.283Z,6.40
2023-03-27T17:45:16.062Z,6.40
2023-03-27T17:48:02.821Z,6.30
2023-03-27T17:50:58.011Z,6.40
2023-03-27T17:53:54.318Z,6.30
2023-03-27T17:56:41.040Z,6.30
2023-03-27T17:59:30.970Z,6.30
2023-03-27T18:02:18.715Z,6.20
2023-03-27T18:05:06.792Z,6.10
2023-03-27T18:07:53.820Z,6.10
2023-03-27T18:10:45.082Z,6.10
2023-03-27T18:13:31.726Z,6.10
2023-03-27T18:16:20.033Z,6.00
2023-03-27T18:19:06.808Z,5.90
2023-03-27T18:21:53.496Z,5.80
2023-03-27T18:24:40.492Z,5.70
2023-03-27T18:27:26.993Z,5.70
2023-03-27T18:30:16.114Z,5.60
2023-03-27T18:33:05.548Z,5.40
2023-03-27T18:35:56.088Z,5.50
2023-03-27T18:38:42.879Z,5.60
2023-03-27T18:41:29.765Z,5.50
2023-03-27T18:44:16.360Z,5.40
2023-03-27T18:47:02.786Z,5.40
2023-03-27T18:49:50.801Z,5.10
2023-03-27T18:52:37.595Z,4.90
2023-03-27T18:55:24.280Z,4.90
2023-03-27T18:58:10.650Z,4.90
2023-03-27T19:00:57.721Z,4.70
2023-03-27T19:03:44.714Z,4.70
2023-03-27T19:06:34.988Z,4.80
2023-03-27T19:09:25.535Z,4.90
2023-03-27T19:12:21.595Z,4.80
2023-03-27T19:15:19.237Z,4.80
2023-03-27T19:18:06.507Z,4.80
2023-03-27T19:20:53.265Z,5.00
2023-03-27T19:23:41.351Z,5.00
2023-03-27T19:26:27.903Z,4.80
2023-03-27T19:29:14.462Z,4.90
2023-03-27T19:32:01.408Z,4.80
2023-03-27T19:34:48.368Z,4.80
2023-03-27T19:37:34.841Z,4.80
2023-03-27T19:40:23.036Z,4.60
2023-03-27T19:43:09.632Z,4.70
2023-03-27T19:46:08.400Z,4.70
2023-03-27T19:49:02.449Z,4.60
2023-03-27T19:51:49.087Z,4.70
2023-03-27T19:54:35.497Z,4.60
2023-03-27T19:57:23.326Z,4.60
2023-03-27T20:00:12.873Z,4.60
2023-03-27T20:02:59.686Z,4.70
2023-03-27T20:05:49.005Z,4.70
2023-03-27T20:08:38.198Z,4.50
2023-03-27T20:11:27.117Z,4.50
2023-03-27T20:14:15.470Z,4.70
2023-03-27T20:17:02.450Z,4.50
2023-03-27T20:19:49.623Z,4.50
2023-03-27T20:22:46.252Z,4.40
2023-03-27T20:25:41.844Z,4.40
2023-03-27T20:28:28.875Z,4.40
2023-03-27T20:31:17.065Z,4.30
2023-03-27T20:34:03.807Z,4.50
2023-03-27T20:36:53.635Z,4.30
2023-03-27T20:39:44.720Z,4.30
2023-03-27T20:42:38.789Z,3.50
2023-03-27T20:45:26.677Z,4.10
2023-03-27T20:48:22.063Z,4.10
2023-03-27T20:51:14.760Z,4.20
2023-03-27T20:54:01.650Z,4.30
2023-03-27T20:56:48.000Z,4.10
2023-03-27T20:59:35.426Z,4.20
2023-03-27T21:02:22.432Z,4.30
2023-03-27T21:05:11.068Z,4.30
2023-03-27T21:07:57.319Z,4.20
2023-03-27T21:10:44.021Z,4.30
2023-03-27T21:13:31.501Z,4.20
2023-03-27T21:16:18.284Z,4.10
2023-03-27T21:19:05.357Z,4.10
2023-03-27T21:21:53.552Z,4.20
2023-03-27T21:24:40.384Z,4.00
2023-03-27T21:27:27.136Z,4.10
2023-03-27T21:30:15.634Z,4.10
2023-03-27T21:33:04.177Z,4.10
2023-03-27T21:35:50.953Z,4.00
2023-03-27T21:38:39.063Z,4.00
2023-03-27T21:41:27.293Z,4.00
2023-03-27T21:44:13.995Z,4.10
2023-03-27T21:47:00.542Z,4.10
2023-03-27T21:49:46.943Z,4.00
2023-03-27T21:52:33.393Z,4.00
2023-03-27T21:55:21.121Z,4.00
2023-03-27T21:58:07.862Z,4.10
2023-03-27T22:00:57.662Z,3.90
2023-03-27T22:03:44.083Z,3.90
2023-03-27T22:06:30.817Z,3.90
2023-03-27T22:09:18.009Z,4.00
2023-03-27T22:12:06.500Z,4.00
2023-03-27T22:14:52.810Z,3.90
2023-03-27T22:17:39.898Z,3.90
2023-03-27T22:20:27.146Z,3.90
2023-03-27T22:23:13.445Z,3.90
2023-03-27T22:26:00.136Z,3.90
2023-03-27T22:28:48.509Z,4.00
2023-03-27T22:31:35.883Z,3.90
2023-03-27T22:34:22.380Z,3.90
2023-03-27T22:37:08.918Z,3.90
2023-03-27T22:39:55.494Z,3.90
2023-03-27T22:42:42.055Z,3.80
2023-03-27T22:45:30.033Z,3.90
2023-03-27T22:48:16.591Z,3.90
2023-03-27T22:51:04.449Z,3.80
2023-03-27T22:53:51.675Z,3.80
2023-03-27T22:56:38.483Z,3.70
2023-03-27T22:59:24.966Z,3.80
2023-03-27T23:02:12.849Z,3.80
2023-03-27T23:04:59.526Z,3.80
2023-03-27T23:07:45.868Z,3.80
2023-03-27T23:10:32.460Z,3.80
2023-03-27T23:13:19.234Z,3.70
2023-03-27T23:16:06.306Z,3.60
2023-03-27T23:18:54.310Z,3.70
2023-03-27T23:21:41.137Z,3.70
2023-03-27T23:24:27.417Z,3.70
2023-03-27T23:27:13.849Z,3.70
2023-03-27T23:30:00.314Z,3.70
2023-03-27T23:32:46.768Z,3.90
2023-03-27T23:35:36.639Z,3.80
2023-03-27T23:38:23.359Z,3.80
2023-03-27T23:41:11.681Z,3.70
2023-03-27T23:43:58.039Z,3.70
2023-03-27T23:46:44.497Z,3.70
2023-03-27T23:49:31.070Z,3.80
2023-03-27T23:52:18.825Z,3.70
2023-03-27T23:55:06.398Z,3.70
2023-03-27T23:57:52.816Z,3.80
